Latest Coastal Weather Observations for Cape Borda

IDT60701

Issued at 4:05 pm EST Saturday 20 September 2014 (issued every 10 minutes, with the page automatically refreshed every 10 minutes)

About coastal observations | Map of coastal stations | Coastal observations for TAS | Marine services | Other Formats
Station Details ID: 022823 Name: CAPE BORDA Lat: -35.75 Lon: 136.60 Height: 158.0 m
Data from the previous 72 hours. | See also: Recent months at Cape Borda
Date/Time
EST
Temp

°C
Wind Pressure Rain
since 9am
mm
Weather Cloud Vis
km
Sea
Height
m
Swell
Dir
 
Speed
knots
Gust
knots
hPa Trend Height
m
Period
s
Dir
20/04:00pm 19.0 NE 5 8 1024.7 - 0.0 - - - - - - -
20/03:30pm 19.2 ENE 9 12 1024.6 R 0.0 Fine Mostly clear 15 1 4.0 8 SW
20/03:00pm 18.7 E 10 14 1024.4 - 0.0 - - - - - - -
20/02:30pm 18.0 E 11 15 1024.4 - 0.0 - - - - - - -
20/02:00pm 17.7 E 12 15 1024.7 - 0.0 - - - - - - -
20/01:30pm 17.1 ENE 12 16 1024.8 - 0.0 - - - - - - -
20/01:00pm 16.1 ENE 13 19 1024.9 - 0.0 - - - - - - -
20/12:30pm 16.0 ENE 15 20 1025.2 - 0.0 - - - - - - -
20/12:00pm 16.6 ENE 15 20 1025.2 - 0.0 - - - - - - -
20/11:30am 16.2 ENE 14 20 1025.5 - 0.0 - - - - - - -
20/11:00am 16.0 ENE 14 19 1025.5 - 0.0 - - - - - - -
20/10:30am 15.9 ENE 13 20 1025.5 - 0.0 - - - - - - -
20/10:00am 15.9 ENE 12 18 1025.9 - 0.0 - - - - - - -
20/09:30am 15.1 ENE 14 19 1026.0 R 0.0 Fine Mostly clear 15 2 3.5 8 SW
20/09:00am 14.7 ENE 13 17 1025.6 - 0.0 - - - - - - -
20/08:30am 13.8 ENE 11 17 1025.3 - 0.0 - - - - - - -
20/08:00am 13.0 ENE 13 16 1024.9 - 0.0 - - - - - - -
20/07:30am 12.1 ENE 12 16 1024.4 - 0.0 - - - - - - -
20/07:00am 10.9 E 11 14 1024.2 - 0.0 - - - - - - -
20/06:30am 10.5 E 11 14 1024.0 R 0.0 Haze Mostly clear 15 <0.5 3.8 7 SW
20/06:00am 10.8 ENE 11 15 1023.8 - 0.0 - - - - - - -
20/05:30am 10.5 ENE 11 16 1023.4 - 0.0 - - - - - - -
20/05:00am 10.3 E 11 14 1023.0 - 0.0 - - - - - - -
20/04:30am 10.2 E 10 15 1022.7 - 0.0 - - - - - - -
20/04:00am 10.9 E 12 18 1022.3 - 0.0 - - - - - - -
20/03:30am 11.0 E 12 18 1022.5 - 0.0 - - - - - - -
20/03:00am 9.8 E 10 14 1022.4 - 0.0 - - - - - - -
20/02:30am 9.5 E 11 14 1022.6 - 0.0 - - - - - - -
20/02:00am 9.7 E 11 15 1022.9 - 0.0 - - - - - - -
20/01:30am 9.7 E 12 15 1023.1 - 0.0 - - - - - - -
20/01:00am 9.9 E 12 16 1023.1 - 0.0 - - - - - - -
20/12:30am 10.0 E 11 15 1023.3 - 0.0 - - - - - - -
20/12:00am 10.0 E 12 18 1023.2 - 0.0 - - - - - - -
 
Date/Time
EST
Temp

°C
Wind Pressure Rain
since 9am
mm
Weather Cloud Vis
km
Sea
Height
m
Swell
Dir
 
Speed
knots
Gust
knots
hPa Trend Height
m
Period
s
Dir
19/11:30pm 9.9 E 11 14 1023.1 - 0.0 - - - - - - -
19/11:00pm 9.4 E 11 15 1023.2 - 0.0 - - - - - - -
19/10:30pm 8.5 ESE 10 12 1023.4 - 0.0 - - - - - - -
19/10:00pm 8.0 ESE 9 11 1023.6 - 0.0 - - - - - - -
19/09:30pm 7.7 ESE 9 11 1023.7 - 0.0 - - - - - - -
19/09:00pm 7.7 ESE 9 11 1023.6 - 0.0 - - - - - - -
19/08:30pm 8.7 SE 7 7 1023.5 - 0.0 - - - - - - -
19/08:00pm 9.4 SSE 6 7 1023.3 - 0.0 - - - - - - -
19/07:30pm 10.0 S 7 8 1023.3 - 0.0 - - - - - - -
19/07:00pm 10.5 S 6 7 1023.3 - 0.0 - - - - - - -
19/06:30pm 12.1 S 6 8 1023.4 - 0.0 - - - - - - -
19/06:00pm 13.2 SSE 5 8 1023.0 - 0.0 - - - - - - -
19/05:30pm 13.9 NE 4 6 1022.9 - 0.0 - - - - - - -
19/05:00pm 14.6 NE 8 11 1022.8 - 0.0 - - - - - - -
19/04:30pm 14.3 NE 8 11 1023.0 - 0.0 - - - - - - -
19/04:00pm 14.5 NE 9 12 1023.1 - 0.0 - - - - - - -
19/03:30pm 14.4 NE 9 13 1023.3 F 0.0 Fine Partly cloudy 25 1 2.9 8 SW
19/03:00pm 14.9 NE 9 12 1023.4 - 0.0 - - - - - - -
19/02:30pm 15.3 NNE 9 13 1023.6 - 0.0 - - - - - - -
19/02:00pm 15.0 ENE 11 14 1023.9 - 0.0 - - - - - - -
19/01:30pm 14.6 ENE 12 18 1024.0 - 0.0 - - - - - - -
19/01:00pm 14.3 ENE 12 18 1024.5 - 0.0 - - - - - - -
19/12:30pm 14.0 NE 13 17 1024.9 - 0.0 - - - - - - -
19/12:00pm 13.5 ENE 11 17 1025.0 - 0.0 - - - - - - -
19/11:30am 13.4 ENE 11 14 1025.2 - 0.0 - - - - - - -
19/11:00am 13.4 ENE 11 16 1025.5 - 0.0 - - - - - - -
19/10:30am 12.9 ENE 11 17 1025.7 - 0.0 - - - - - - -
19/10:00am 12.4 ENE 13 16 1025.9 - 0.0 - - - - - - -
19/09:30am 12.4 E 11 15 1026.0 R 2.0 Fine Mostly clear 25 1 3.1 8 SW
19/09:00am 11.7 E 10 16 1025.9 - 2.0 - - - - - - -
19/08:30am 10.3 E 9 13 1025.7 - 2.0 - - - - - - -
19/08:00am 8.3 ESE 9 11 1025.6 - 2.0 - - - - - - -
19/07:30am 6.9 ESE 10 11 1025.4 - 2.0 - - - - - - -
19/07:00am 6.0 E 10 11 1025.1 - 2.0 - - - - - - -
19/06:30am 5.7 E 9 10 1024.9 F 2.0 Fine Mostly clear 30 <0.1 - - SW
19/06:00am 5.7 ESE 8 10 1024.7 - 2.0 - - - - - - -
19/05:30am 5.6 E 8 10 1024.7 - 2.0 - - - - - - -
19/05:00am 6.3 E 9 11 1024.6 - 2.0 - - - - - - -
19/04:30am 5.8 E 8 9 1024.6 - 2.0 - - - - - - -
19/04:00am 5.4 ESE 8 9 1024.6 - 2.0 - - - - - - -
19/03:30am 5.8 ESE 9 12 1024.7 - 2.0 - - - - - - -
19/03:00am 5.9 ESE 9 11 1024.7 - 2.0 - - - - - - -
19/02:30am 5.7 ESE 8 9 1024.9 - 2.0 - - - - - - -
19/02:00am 6.2 ESE 8 11 1025.1 - 2.0 - - - - - - -
19/01:30am 6.1 ESE 9 11 1025.3 - 2.0 - - - - - - -
19/01:00am 6.4 E 8 10 1025.6 - 2.0 - - - - - - -
19/12:30am 6.4 E 7 8 1026.0 - 2.0 - - - - - - -
19/12:00am 6.7 E 8 11 1026.0 - 2.0 - - - - - - -
 
Date/Time
EST
Temp

°C
Wind Pressure Rain
since 9am
mm
Weather Cloud Vis
km
Sea
Height
m
Swell
Dir
 
Speed
knots
Gust
knots
hPa Trend Height
m
Period
s
Dir
18/11:30pm 5.7 SE 9 10 1026.1 - 2.0 - - - - - - -
18/11:00pm 5.9 ESE 9 10 1026.4 - 2.0 - - - - - - -
18/10:30pm 6.2 ESE 9 11 1026.5 - 2.0 - - - - - - -
18/10:00pm 6.5 ESE 9 10 1026.6 - 2.0 - - - - - - -
18/09:30pm 6.6 ESE 9 11 1026.7 - 2.0 - - - - - - -
18/09:00pm 7.0 SE 9 10 1026.6 - 2.0 - - - - - - -
18/08:30pm 7.2 SE 9 10 1026.3 - 2.0 - - - - - - -
18/08:00pm 7.8 SE 8 10 1026.2 - 2.0 - - - - - - -
18/07:30pm 8.4 SE 9 11 1026.1 - 2.0 - - - - - - -
18/07:00pm 8.3 SSE 9 10 1025.9 - 2.0 - - - - - - -
18/06:30pm 9.2 SSE 6 7 1025.7 - 2.0 - - - - - - -
18/06:00pm 10.6 CALM 0 3 1025.4 - 2.0 - - - - - - -
18/05:30pm 10.9 NNW 3 4 1025.3 - 2.0 - - - - - - -
18/05:00pm 10.4 N 5 7 1025.3 - 2.0 - - - - - - -
18/04:30pm 10.6 ENE 6 9 1025.2 - 2.0 - - - - - - -
18/04:00pm 10.9 E 4 7 1025.2 - 2.0 - - - - - - -
18/03:30pm 10.9 E 5 8 1025.3 F 2.0 Drizzle Mostly cloudy 12 <0.5 4.6 8 SW
18/03:00pm 12.2 SSE 8 11 1025.2 - 1.2 - - - - - - -
18/02:30pm 11.6 NE 3 5 1025.4 - 1.2 - - - - - - -
18/02:00pm 11.2 NNE 4 6 1025.5 - 1.0 - - - - - - -
18/01:30pm 12.0 WNW 4 8 1025.5 - 0.8 - - - - - - -
18/01:00pm 11.0 S 5 7 1026.0 - 0.8 - - - - - - -
18/12:30pm 12.0 SE 5 8 1026.2 - 0.8 - - - - - - -
18/12:00pm 10.3 S 3 5 1026.3 - 0.8 - - - - - - -
18/11:30am 10.8 NNE 6 8 1026.2 - 0.0 - - - - - - -
18/11:00am 11.1 N 7 10 1026.4 - 0.0 - - - - - - -
18/10:30am 11.0 S 7 9 1026.6 - 0.0 - - - - - - -
18/10:00am 11.7 S 5 6 1026.6 - 0.0 - - - - - - -
18/09:30am 10.8 S 4 6 1026.9 R 0.0 Fine Mostly cloudy 25 <0.5 4.5 9 SW
18/09:00am 9.5 S 5 7 1026.9 - 0.0 - - - - - - -
18/08:30am 9.1 S 6 8 1026.7 - 0.0 - - - - - - -
18/08:00am 8.4 SE 5 5 1026.2 - 0.0 - - - - - - -
18/07:30am 7.6 SE 4 5 1025.9 - 0.0 - - - - - - -
18/07:00am 7.3 SSE 7 9 1025.5 - 0.0 - - - - - - -
18/06:30am 7.1 SE 8 9 1025.3 R 0.0 Fine Cloudy 25 <0.5 5.1 9 SW
18/06:00am 7.0 SSE 9 10 1025.0 - 0.0 - - - - - - -
18/05:30am 7.0 SSE 8 9 1024.7 - 0.0 - - - - - - -
18/05:00am 7.0 SSE 8 9 1024.5 - 0.0 - - - - - - -
18/04:30am 6.9 SE 8 9 1024.4 - 0.0 - - - - - - -
18/04:00am 7.0 SSE 9 10 1024.3 - 0.0 - - - - - - -
18/03:30am 7.3 SSE 10 11 1024.6 - 0.0 - - - - - - -
18/03:00am 7.2 SSE 9 10 1024.7 - 0.0 - - - - - - -
18/02:30am 8.0 SSE 8 9 1024.8 - 0.0 - - - - - - -
18/02:00am 8.8 SSE 7 8 1025.1 - 0.0 - - - - - - -
18/01:30am 9.0 S 8 9 1025.1 - 0.0 - - - - - - -
18/01:00am 9.2 SSE 7 10 1025.2 - 0.0 - - - - - - -
18/12:30am 9.1 SW 5 5 1025.5 - 0.0 - - - - - - -
18/12:00am 8.9 SW 6 8 1025.5 - 0.0 - - - - - - -
 
Date/Time
EST
Temp

°C
Wind Pressure Rain
since 9am
mm
Weather Cloud Vis
km
Sea
Height
m
Swell
Dir
 
Speed
knots
Gust
knots
hPa Trend Height
m
Period
s
Dir
17/11:30pm 9.6 S 5 7 1025.6 - 0.0 - - - - - - -
17/11:00pm 9.4 S 4 5 1025.5 - 0.0 - - - - - - -
17/10:30pm 9.4 S 7 8 1025.3 - 0.0 - - - - - - -
17/10:00pm 9.5 S 6 8 1025.2 - 0.0 - - - - - - -
17/09:30pm 9.4 S 6 7 1025.1 - 0.0 - - - - - - -
17/09:00pm 10.0 S 7 11 1024.8 - 0.0 - - - - - - -
17/08:30pm 8.6 S 6 8 1024.9 - 0.0 - - - - - - -
17/08:00pm 8.3 S 7 9 1024.6 - 0.0 - - - - - - -
17/07:30pm 8.2 S 7 10 1024.4 - 0.0 - - - - - - -
17/07:00pm 8.4 S 8 9 1024.4 - 0.0 - - - - - - -
17/06:30pm 9.5 S 7 9 1024.3 - 0.0 - - - - - - -
17/06:00pm 10.6 S 10 13 1023.9 - 0.0 - - - - - - -
17/05:30pm 12.0 S 10 14 1023.5 - 0.0 - - - - - - -
17/05:00pm 12.6 S 11 15 1023.2 - 0.0 - - - - - - -

Other Formats:

Comma delimited format used in spreadsheet applications
http://www.bom.gov.au/fwo/IDT60701/IDT60701.95805.axf

JavaScript Object Notation format (JSON) in row-major order
http://www.bom.gov.au/fwo/IDT60701/IDT60701.95805.json